Time;durP1;ratioP1;P1;durP2;ratioP2;P2;SDS_P1;SDS_P2;PMS_P1;PMS_P2;Temp;Humidity;BMP_temperature;BMP_pressure;BME280_temperature;BME280_humidity;BME280_pressure;Samples;Min_cycle;Max_cycle;Signal;HPM_P1;HPM_P2
2023/10/01 00:01:16;;;;;;;6.20;2.50;;;;;;;13.85;100.00;101833.91;6028708;28;20506;-64
2023/10/01 00:04:11;;;;;;;11.18;2.70;;;;;;;13.83;100.00;101819.88;6028763;28;20296;-63
2023/10/01 00:07:07;;;;;;;6.00;2.90;;;;;;;13.99;100.00;101822.84;6021260;28;20041;-63
2023/10/01 00:10:11;;;;;;;10.30;3.28;;;;;;;13.88;100.00;101806.97;6028463;28;20034;-63
2023/10/01 00:13:06;;;;;;;9.05;2.50;;;;;;;14.01;100.00;101804.84;6027962;28;20030;-63
2023/10/01 00:16:02;;;;;;;4.97;2.30;;;;;;;13.97;100.00;101799.94;6028353;28;20034;-63
2023/10/01 00:18:59;;;;;;;5.68;2.40;;;;;;;13.90;100.00;101813.00;6027781;28;20444;-63
2023/10/01 00:21:55;;;;;;;9.32;2.47;;;;;;;13.78;100.00;101795.44;6027499;28;20237;-64
2023/10/01 00:24:50;;;;;;;8.20;2.67;;;;;;;13.84;100.00;101788.72;6026166;28;20519;-63
2023/10/01 00:27:45;;;;;;;13.13;3.33;;;;;;;13.90;100.00;101786.34;6026889;28;20038;-64
2023/10/01 00:30:41;;;;;;;9.27;3.00;;;;;;;13.91;100.00;101798.69;6028236;28;20064;-64
2023/10/01 00:33:36;;;;;;;5.90;3.00;;;;;;;13.87;100.00;101789.28;6028028;28;20042;-63
2023/10/01 00:36:32;;;;;;;6.43;2.30;;;;;;;13.76;100.00;101775.25;6027902;28;20633;-64
2023/10/01 00:39:27;;;;;;;9.00;2.80;;;;;;;13.59;100.00;101787.44;6027348;28;20494;-63
2023/10/01 00:42:26;;;;;;;9.47;2.77;;;;;;;13.47;100.00;101808.06;6027646;28;20080;-63
2023/10/01 00:45:21;;;;;;;6.40;2.60;;;;;;;13.46;100.00;101817.03;6027306;28;20030;-64
2023/10/01 00:48:17;;;;;;;5.25;2.45;;;;;;;13.27;100.00;101797.47;6025107;28;20173;-63
2023/10/01 00:51:12;;;;;;;5.07;2.25;;;;;;;13.34;100.00;101802.16;6029525;28;20034;-63
2023/10/01 00:54:10;;;;;;;6.87;2.50;;;;;;;13.36;100.00;101802.84;6020241;28;20722;-63
2023/10/01 00:57:05;;;;;;;8.27;2.50;;;;;;;13.27;100.00;101793.00;6025583;28;20029;-63
2023/10/01 01:00:00;;;;;;;5.60;2.77;;;;;;;13.45;100.00;101778.03;6027558;28;20046;-63
2023/10/01 01:02:57;;;;;;;9.50;2.53;;;;;;;13.42;100.00;101775.66;5985871;28;20050;-63
2023/10/01 01:08:57;;;;;;;6.03;2.55;;;;;;;13.45;100.00;101785.19;6025144;28;20038;-63
2023/10/01 01:11:52;;;;;;;7.55;3.03;;;;;;;13.36;100.00;101773.53;6026925;28;20046;-64
2023/10/01 01:14:48;;;;;;;7.00;2.43;;;;;;;13.46;100.00;101770.88;6026972;28;20042;-63
2023/10/01 01:17:44;;;;;;;7.22;3.20;;;;;;;13.42;100.00;101751.69;6026191;28;20018;-63
2023/10/01 01:20:48;;;;;;;9.60;3.10;;;;;;;13.42;100.00;101756.16;6027140;28;20113;-63
2023/10/01 01:23:50;;;;;;;7.65;2.53;;;;;;;13.29;100.00;101756.41;6017756;28;20030;-63
2023/10/01 01:26:51;;;;;;;4.80;2.38;;;;;;;13.37;100.00;101774.38;6019229;28;20042;-63
2023/10/01 01:29:50;;;;;;;8.75;2.42;;;;;;;13.38;100.00;101752.06;6026766;28;20080;-64
2023/10/01 01:32:47;;;;;;;9.15;2.50;;;;;;;13.35;100.00;101755.00;6016720;28;20038;-63
2023/10/01 01:35:43;;;;;;;11.52;2.78;;;;;;;13.37;100.00;101761.06;6025481;28;20057;-63
2023/10/01 01:38:54;;;;;;;6.28;2.30;;;;;;;13.20;100.00;101754.59;6025338;28;20034;-63
2023/10/01 01:41:51;;;;;;;7.18;2.50;;;;;;;13.13;100.00;101756.94;6025499;28;20038;-63
2023/10/01 01:48:21;;;;;;;5.32;2.38;;;;;;;13.09;100.00;101757.38;6026175;28;20038;-63
2023/10/01 01:51:17;;;;;;;10.48;2.90;;;;;;;13.22;100.00;101768.59;6026857;28;20042;-64
2023/10/01 01:54:12;;;;;;;7.85;1.92;;;;;;;13.26;100.00;101771.84;6025579;28;20038;-63
2023/10/01 01:57:17;;;;;;;12.77;3.37;;;;;;;13.28;100.00;101780.53;6024087;28;20472;-64
2023/10/01 02:00:13;;;;;;;6.53;2.30;;;;;;;13.33;100.00;101794.28;6026375;28;20026;-63
2023/10/01 02:03:17;;;;;;;5.07;2.00;;;;;;;13.26;100.00;101761.19;6018153;28;20041;-63
2023/10/01 02:06:14;;;;;;;6.35;2.25;;;;;;;13.45;100.00;101761.22;6026122;28;20038;-63
2023/10/01 02:09:12;;;;;;;8.10;2.50;;;;;;;13.40;100.00;101774.94;6024863;28;20132;-63
2023/10/01 02:12:23;;;;;;;7.50;2.15;;;;;;;13.40;100.00;101779.44;6025738;28;20038;-63
2023/10/01 02:15:18;;;;;;;5.65;2.20;;;;;;;13.31;100.00;101745.63;6025757;28;20022;-64
2023/10/01 02:18:17;;;;;;;7.17;2.40;;;;;;;13.43;100.00;101763.16;6024569;28;20397;-63
2023/10/01 02:21:17;;;;;;;6.57;2.35;;;;;;;13.42;100.00;101766.81;6025667;28;20025;-63
2023/10/01 02:24:14;;;;;;;5.22;2.20;;;;;;;13.36;100.00;101764.69;6025705;28;20038;-63
2023/10/01 02:27:14;;;;;;;4.85;2.00;;;;;;;13.44;100.00;101770.19;6025180;28;20105;-64
2023/10/01 02:30:14;;;;;;;5.07;2.05;;;;;;;13.42;100.00;101773.00;6025201;28;20038;-64
2023/10/01 02:33:19;;;;;;;6.55;1.95;;;;;;;13.58;100.00;101759.13;6025933;28;20101;-63
2023/10/01 02:36:22;;;;;;;6.50;1.95;;;;;;;13.55;100.00;101743.41;6025548;28;20390;-63
2023/10/01 02:39:21;;;;;;;5.47;1.92;;;;;;;13.62;100.00;101752.50;6025447;28;20030;-63
2023/10/01 02:42:26;;;;;;;6.35;2.13;;;;;;;13.69;100.00;101753.66;6025672;28;20618;-63
2023/10/01 02:45:35;;;;;;;5.63;2.00;;;;;;;13.59;100.00;101760.78;6024754;28;20031;-63
2023/10/01 02:48:30;;;;;;;3.22;2.00;;;;;;;13.42;100.00;101761.50;6025101;28;20080;-64
2023/10/01 02:51:32;;;;;;;5.45;1.70;;;;;;;13.38;100.00;101768.06;6027789;28;20030;-63
2023/10/01 02:54:28;;;;;;;3.75;2.08;;;;;;;13.34;100.00;101761.34;6025483;28;20121;-63
2023/10/01 02:57:24;;;;;;;7.43;2.22;;;;;;;13.38;100.00;101741.41;6023052;28;20489;-63
2023/10/01 03:03:15;;;;;;;6.73;2.00;;;;;;;13.48;100.00;101751.09;6025552;28;20072;-63
2023/10/01 03:06:10;;;;;;;3.85;1.73;;;;;;;13.32;100.00;101740.16;6024440;28;20030;-63
2023/10/01 03:09:09;;;;;;;5.90;2.10;;;;;;;13.19;100.00;101723.59;6025002;28;20074;-63
2023/10/01 03:15:27;;;;;;;4.53;1.83;;;;;;;13.24;100.00;101720.50;6025073;28;20413;-64
2023/10/01 03:21:18;;;;;;;6.47;2.37;;;;;;;13.13;100.00;101735.63;6025398;28;20061;-63
2023/10/01 03:24:14;;;;;;;10.15;2.20;;;;;;;13.02;100.00;101740.19;6025143;28;20023;-64
2023/10/01 03:27:20;;;;;;;8.13;2.50;;;;;;;12.97;100.00;101737.94;6020949;28;20042;-64
2023/10/01 03:30:21;;;;;;;6.38;2.50;;;;;;;12.96;100.00;101722.13;6025011;28;20030;-63
2023/10/01 03:33:16;;;;;;;5.18;2.40;;;;;;;12.95;100.00;101726.59;6027228;28;20022;-64
2023/10/01 03:36:13;;;;;;;6.93;2.00;;;;;;;12.95;100.00;101731.94;6029292;28;20029;-63
2023/10/01 03:39:25;;;;;;;6.15;2.33;;;;;;;12.95;100.00;101733.75;6028684;28;20053;-63
2023/10/01 03:42:21;;;;;;;4.13;2.22;;;;;;;13.01;100.00;101747.38;6026367;28;20034;-63
2023/10/01 03:48:19;;;;;;;7.47;2.55;;;;;;;12.88;100.00;101741.41;6028849;28;20030;-63
2023/10/01 03:51:16;;;;;;;6.18;2.13;;;;;;;12.90;100.00;101734.16;6030204;28;20223;-63
2023/10/01 03:54:14;;;;;;;5.35;2.42;;;;;;;13.02;100.00;101756.16;6028778;28;20392;-63
2023/10/01 03:57:12;;;;;;;6.85;2.05;;;;;;;13.06;100.00;101747.78;6028383;28;20038;-63
2023/10/01 04:00:29;;;;;;;4.20;2.20;;;;;;;12.92;100.00;101721.53;6024192;28;20129;-63
2023/10/01 04:03:23;;;;;;;4.50;2.05;;;;;;;13.04;100.00;101746.25;6028697;28;20042;-64
2023/10/01 04:06:21;;;;;;;8.77;2.50;;;;;;;13.14;100.00;101757.78;6028429;28;20022;-63
2023/10/01 04:09:19;;;;;;;6.32;2.22;;;;;;;13.22;100.00;101744.63;6028419;28;20343;-63
2023/10/01 04:12:27;;;;;;;6.75;2.22;;;;;;;13.14;100.00;101733.81;6027327;28;20034;-63
2023/10/01 04:15:27;;;;;;;8.73;2.45;;;;;;;13.28;100.00;101752.06;6028122;28;20113;-63
2023/10/01 04:18:24;;;;;;;5.68;2.63;;;;;;;13.27;100.00;101753.03;6028065;28;20058;-63
2023/10/01 04:21:25;;;;;;;4.70;2.13;;;;;;;13.16;100.00;101731.84;6020106;28;20113;-63
2023/10/01 04:24:21;;;;;;;6.28;2.40;;;;;;;13.13;100.00;101733.97;6025417;28;20034;-64
2023/10/01 04:27:23;;;;;;;7.07;2.40;;;;;;;13.13;100.00;101728.66;6023727;28;20041;-64
2023/10/01 04:30:21;;;;;;;6.68;2.20;;;;;;;13.03;100.00;101723.25;6025584;28;20034;-64
2023/10/01 04:33:18;;;;;;;5.30;2.20;;;;;;;12.99;100.00;101733.31;6024444;28;20430;-64
2023/10/01 04:36:19;;;;;;;6.70;2.50;;;;;;;13.02;100.00;101742.84;6024140;28;20081;-63
2023/10/01 04:39:14;;;;;;;6.80;2.38;;;;;;;12.89;100.00;101736.94;6024582;28;20104;-63
2023/10/01 04:42:11;;;;;;;7.87;2.50;;;;;;;12.94;100.00;101735.56;6023679;28;20038;-63
2023/10/01 04:45:22;;;;;;;7.78;2.70;;;;;;;12.91;100.00;101725.19;6023444;28;20038;-63
2023/10/01 04:48:23;;;;;;;5.13;2.53;;;;;;;13.02;100.00;101737.53;6019572;28;20046;-63
2023/10/01 04:51:21;;;;;;;8.18;2.38;;;;;;;13.01;100.00;101736.72;6027875;28;20092;-63
2023/10/01 04:54:21;;;;;;;8.07;2.50;;;;;;;12.96;100.00;101725.59;6024279;28;20045;-63
2023/10/01 04:57:19;;;;;;;4.97;2.45;;;;;;;13.08;100.00;101734.38;6023709;28;20038;-63
2023/10/01 05:00:14;;;;;;;7.50;2.88;;;;;;;13.10;100.00;101740.38;6023623;28;20409;-65
2023/10/01 05:03:10;;;;;;;4.90;2.13;;;;;;;12.98;100.00;101734.31;6024643;28;20121;-63
2023/10/01 05:06:13;;;;;;;7.00;3.10;;;;;;;13.09;100.00;101736.06;6023498;28;20775;-64
2023/10/01 05:09:14;;;;;;;7.80;3.10;;;;;;;13.06;100.00;101739.81;6023227;28;20041;-63
2023/10/01 05:12:11;;;;;;;;;;;;;;;13.15;100.00;101747.97;6023042;28;20553;-63
2023/10/01 05:15:17;;;;;;;7.65;2.85;;;;;;;12.95;100.00;101742.56;6024118;28;19918;-63
2023/10/01 05:18:12;;;;;;;6.90;2.30;;;;;;;13.00;100.00;101740.34;6023884;28;20405;-63
2023/10/01 05:21:12;;;;;;;6.57;2.33;;;;;;;12.84;100.00;101728.53;6021756;28;20045;-64
2023/10/01 05:24:09;;;;;;;7.03;2.72;;;;;;;12.89;100.00;101744.94;6013779;28;20045;-63
2023/10/01 05:27:18;;;;;;;7.72;2.58;;;;;;;12.86;100.00;101729.22;6026804;28;20065;-64
2023/10/01 05:33:27;;;;;;;6.65;2.97;;;;;;;12.83;100.00;101746.31;6015644;28;20150;-63
2023/10/01 05:36:22;;;;;;;11.85;3.00;;;;;;;12.74;100.00;101733.84;6012359;28;20502;-63
2023/10/01 05:39:23;;;;;;;7.13;3.15;;;;;;;12.72;100.00;101746.41;6012113;28;20031;-63
2023/10/01 05:42:19;;;;;;;6.95;3.40;;;;;;;12.64;100.00;101748.91;6010860;28;20038;-63
2023/10/01 05:45:18;;;;;;;7.63;2.70;;;;;;;12.65;100.00;101745.28;6012605;28;20030;-64
2023/10/01 05:48:18;;;;;;;5.50;2.67;;;;;;;12.62;100.00;101740.22;6016555;28;20124;-63
2023/10/01 05:51:19;;;;;;;6.13;2.67;;;;;;;12.68;100.00;101729.03;6027113;28;20034;-63
2023/10/01 05:54:22;;;;;;;8.35;2.63;;;;;;;12.76;100.00;101747.00;6022357;28;20116;-64
2023/10/01 05:57:17;;;;;;;7.15;3.10;;;;;;;12.79;100.00;101731.59;6021984;28;20049;-63
2023/10/01 06:00:17;;;;;;;6.37;2.93;;;;;;;12.81;100.00;101742.94;6023259;28;20042;-63
2023/10/01 06:03:14;;;;;;;6.40;2.67;;;;;;;13.02;100.00;101743.72;6022811;28;20034;-63
2023/10/01 06:06:13;;;;;;;6.18;3.05;;;;;;;13.00;100.00;101729.69;6022795;28;20031;-63
2023/10/01 06:09:14;;;;;;;5.57;2.58;;;;;;;13.13;100.00;101739.28;6021617;28;20117;-63
2023/10/01 06:12:10;;;;;;;6.50;2.95;;;;;;;13.31;100.00;101724.31;6016206;28;20143;-63
2023/10/01 06:15:11;;;;;;;6.75;2.58;;;;;;;13.45;100.00;101723.91;6021752;28;20058;-64
2023/10/01 06:18:07;;;;;;;6.95;2.58;;;;;;;13.51;100.00;101721.50;6019394;28;20030;-63
2023/10/01 06:21:03;;;;;;;8.63;2.83;;;;;;;13.59;100.00;101716.31;6025572;28;20038;-63
2023/10/01 06:24:03;;;;;;;8.75;2.90;;;;;;;13.70;100.00;101724.16;6024498;28;20053;-64
2023/10/01 06:26:59;;;;;;;9.63;2.60;;;;;;;13.65;100.00;101714.91;6024783;28;20038;-64
2023/10/01 06:30:00;;;;;;;8.60;2.78;;;;;;;13.66;100.00;101711.28;6024720;28;20662;-63
2023/10/01 06:32:56;;;;;;;6.57;2.53;;;;;;;13.83;100.00;101721.22;6025180;28;20058;-64
2023/10/01 06:39:06;;;;;;;4.43;2.30;;;;;;;13.74;100.00;101714.06;6025072;28;20034;-63
2023/10/01 06:42:18;;;;;;;5.43;2.40;;;;;;;13.53;100.00;101700.06;6025209;28;20042;-63
2023/10/01 06:45:15;;;;;;;8.02;3.22;;;;;;;13.53;100.00;101700.06;6025476;28;20109;-64
2023/10/01 06:48:14;;;;;;;5.97;2.40;;;;;;;13.72;100.00;101716.06;6025155;28;20030;-63
2023/10/01 06:51:12;;;;;;;8.65;2.97;;;;;;;13.77;100.00;101724.47;6029278;28;20060;-64
2023/10/01 06:54:07;;;;;;;6.03;2.55;;;;;;;13.88;100.00;101731.47;6024446;28;20077;-63
2023/10/01 06:57:16;;;;;;;7.73;2.93;;;;;;;14.19;100.00;101716.91;6024487;28;20038;-63
2023/10/01 07:00:21;;;;;;;5.03;2.17;;;;;;;14.46;100.00;101716.19;6025083;28;20564;-63
2023/10/01 07:03:18;;;;;;;4.88;2.10;;;;;;;14.82;100.00;101740.19;6025268;28;20062;-63
2023/10/01 07:06:13;;;;;;;4.40;2.10;;;;;;;15.12;100.00;101741.69;6025237;28;20096;-63
2023/10/01 07:09:27;;;;;;;6.22;2.38;;;;;;;15.03;98.08;101731.91;6028680;28;20473;-63
2023/10/01 07:12:23;;;;;;;7.68;3.42;;;;;;;15.29;96.12;101743.56;6030170;28;20137;-64
2023/10/01 07:15:20;;;;;;;5.13;2.53;;;;;;;15.28;95.85;101751.72;6029112;28;20066;-63
2023/10/01 07:18:19;;;;;;;6.20;2.38;;;;;;;15.57;95.38;101748.88;6022346;28;20081;-63
2023/10/01 07:21:16;;;;;;;5.78;2.20;;;;;;;15.44;94.46;101720.66;6024880;28;20490;-63
2023/10/01 07:24:12;;;;;;;6.13;2.08;;;;;;;15.64;92.10;101736.56;6026193;28;20092;-64
2023/10/01 07:27:11;;;;;;;7.13;1.98;;;;;;;16.06;91.85;101759.00;6018314;28;20454;-64
2023/10/01 07:30:07;;;;;;;5.95;2.70;;;;;;;16.30;88.62;101759.16;6024550;28;20078;-63
2023/10/01 07:33:03;;;;;;;6.88;2.13;;;;;;;16.15;89.23;101757.19;6024516;28;20084;-64
2023/10/01 07:36:01;;;;;;;6.57;2.33;;;;;;;16.13;89.03;101741.31;6027599;28;20030;-63
2023/10/01 07:38:57;;;;;;;7.55;2.30;;;;;;;16.25;88.28;101752.59;6017825;28;20031;-64
2023/10/01 07:41:53;;;;;;;5.28;2.47;;;;;;;16.29;88.55;101748.59;6021632;28;20070;-64
2023/10/01 07:44:49;;;;;;;7.50;2.40;;;;;;;16.22;89.56;101745.72;6024139;28;20042;-63
2023/10/01 07:47:45;;;;;;;5.85;2.45;;;;;;;16.30;88.76;101740.44;6025574;28;20023;-64
2023/10/01 07:50:41;;;;;;;7.28;2.72;;;;;;;16.54;87.19;101747.78;6030764;28;20080;-63
2023/10/01 07:53:42;;;;;;;5.80;2.30;;;;;;;16.52;87.08;101736.38;6028726;28;20085;-64
2023/10/01 07:56:51;;;;;;;5.97;2.40;;;;;;;16.74;87.52;101759.13;6025612;28;20030;-63
2023/10/01 07:59:46;;;;;;;7.55;2.10;;;;;;;16.57;87.40;101753.69;6026403;28;20053;-63
2023/10/01 08:03:28;;;;;;;6.60;2.30;;;;;;;16.51;85.87;101753.44;6028671;28;20031;-63
2023/10/01 08:06:16;;;;;;;6.40;2.35;;;;;;;16.76;86.35;101757.09;6027772;28;20528;-64
2023/10/01 08:09:12;;;;;;;7.43;2.45;;;;;;;16.68;87.26;101755.22;6027491;28;20042;-64
2023/10/01 08:12:08;;;;;;;6.15;2.47;;;;;;;16.63;87.60;101761.06;6028438;28;20037;-63
2023/10/01 08:15:29;;;;;;;5.82;2.25;;;;;;;16.71;87.13;101756.75;6028626;28;20038;-63
2023/10/01 08:18:39;;;;;;;7.05;2.17;;;;;;;16.56;86.52;101757.34;6026598;28;20397;-63
2023/10/01 08:21:37;;;;;;;8.18;2.60;;;;;;;16.73;86.64;101766.31;6026858;28;20486;-64
2023/10/01 08:24:35;;;;;;;5.45;2.20;;;;;;;16.62;86.04;101767.44;6027280;28;20039;-64
2023/10/01 08:27:34;;;;;;;9.23;2.97;;;;;;;16.78;85.14;101758.63;6027650;28;20049;-63
2023/10/01 08:30:39;;;;;;;6.95;2.35;;;;;;;16.98;84.59;101745.81;6027983;28;20049;-63
2023/10/01 08:33:39;;;;;;;7.00;2.40;;;;;;;17.10;84.76;101755.22;6027390;28;20038;-63
2023/10/01 08:36:36;;;;;;;7.93;2.80;;;;;;;17.24;82.00;101735.81;6026419;28;20042;-64
2023/10/01 08:39:53;;;;;;;5.97;2.25;;;;;;;17.49;82.03;101739.41;6027296;28;20057;-64
2023/10/01 08:42:48;;;;;;;4.88;2.28;;;;;;;17.62;78.85;101755.88;6027209;28;20490;-64
2023/10/01 08:45:47;;;;;;;5.70;2.60;;;;;;;17.47;80.80;101750.31;6016010;28;20038;-63
2023/10/01 08:48:43;;;;;;;4.82;1.92;;;;;;;17.41;79.90;101753.63;6020651;28;20433;-64
2023/10/01 08:51:38;;;;;;;5.95;2.15;;;;;;;17.57;77.77;101768.94;6020862;28;20018;-64
2023/10/01 08:54:35;;;;;;;5.33;2.00;;;;;;;17.37;77.33;101763.00;6019582;28;20062;-64
2023/10/01 08:57:45;;;;;;;5.72;2.42;;;;;;;17.34;76.34;101763.31;6017545;28;20296;-64
2023/10/01 09:01:10;;;;;;;5.30;2.30;;;;;;;17.54;76.80;101775.47;6024849;28;20026;-63
2023/10/01 09:04:29;;;;;;;7.63;2.50;;;;;;;17.23;75.38;101777.03;6015029;28;20437;-65
2023/10/01 09:07:21;;;;;;;6.22;2.08;;;;;;;17.16;77.40;101765.28;6025229;28;20038;-63
2023/10/01 09:10:20;;;;;;;6.18;2.00;;;;;;;17.24;78.11;101781.41;6026481;28;20045;-64
2023/10/01 09:13:20;;;;;;;5.65;1.80;;;;;;;17.32;76.92;101772.53;6024118;28;20034;-65
2023/10/01 09:16:16;;;;;;;4.68;1.80;;;;;;;17.34;78.61;101782.09;6025628;28;20026;-64
2023/10/01 09:19:34;;;;;;;4.85;1.75;;;;;;;17.28;76.48;101766.69;6020001;28;20041;-64
2023/10/01 09:25:27;;;;;;;8.48;2.35;;;;;;;17.21;76.41;101771.84;6024355;28;20080;-63
2023/10/01 09:28:37;;;;;;;5.78;2.10;;;;;;;17.29;76.76;101771.03;6022358;28;20038;-64
2023/10/01 09:31:52;;;;;;;6.18;2.10;;;;;;;17.35;76.46;101765.00;6016505;28;20125;-65
2023/10/01 09:34:56;;;;;;;5.97;2.22;;;;;;;17.61;75.54;101754.22;6019988;28;20065;-63
2023/10/01 09:38:12;;;;;;;6.88;2.08;;;;;;;17.66;75.43;101768.81;6025296;28;20061;-64
2023/10/01 09:41:19;;;;;;;6.53;1.98;;;;;;;18.18;73.96;101773.84;6022572;28;20042;-63
2023/10/01 09:44:16;;;;;;;5.45;2.20;;;;;;;18.36;73.91;101763.72;6021390;28;20449;-64
2023/10/01 09:47:13;;;;;;;4.55;1.98;;;;;;;18.24;72.15;101757.03;6011613;28;20430;-64
2023/10/01 09:50:15;;;;;;;8.93;2.50;;;;;;;18.30;71.72;101780.53;6022786;28;20027;-63
2023/10/01 09:53:12;;;;;;;10.02;2.90;;;;;;;18.18;72.49;101780.03;6017731;28;20164;-63
2023/10/01 09:56:12;;;;;;;5.00;2.28;;;;;;;18.08;72.74;101776.69;6025535;28;20045;-64
2023/10/01 09:59:08;;;;;;;7.70;2.30;;;;;;;17.97;74.76;101765.44;6015987;28;20049;-63
2023/10/01 10:02:04;;;;;;;5.63;2.30;;;;;;;18.08;75.29;101754.34;6024488;28;20026;-63
2023/10/01 10:04:59;;;;;;;6.07;2.22;;;;;;;18.33;74.79;101750.63;6024396;28;20045;-64
2023/10/01 10:07:56;;;;;;;7.00;2.30;;;;;;;18.44;73.57;101752.97;6024811;28;20033;-64
2023/10/01 10:10:55;;;;;;;11.93;2.90;;;;;;;18.40;73.27;101746.25;6025556;28;20040;-64
2023/10/01 10:13:57;;;;;;;9.43;2.72;;;;;;;18.42;72.53;101749.63;6024520;28;20034;-64
2023/10/01 10:16:59;;;;;;;6.57;2.40;;;;;;;18.15;73.29;101736.59;6024293;28;20066;-63
2023/10/01 10:20:15;;;;;;;6.68;2.20;;;;;;;18.27;74.11;101745.94;6025276;28;20041;-63
2023/10/01 10:23:16;;;;;;;7.40;2.55;;;;;;;18.23;74.67;101728.50;6025043;28;20033;-64
2023/10/01 10:26:13;;;;;;;8.55;2.55;;;;;;;18.18;74.29;101734.38;6025524;28;20566;-63
2023/10/01 10:29:12;;;;;;;9.25;2.50;;;;;;;18.05;74.54;101725.16;6024384;28;20062;-64
2023/10/01 10:32:10;;;;;;;6.93;2.30;;;;;;;18.18;75.82;101734.38;6023234;28;20038;-64
2023/10/01 10:35:14;;;;;;;8.75;2.97;;;;;;;18.15;75.26;101729.38;6018255;28;20117;-64
2023/10/01 10:38:51;;;;;;;8.73;2.38;;;;;;;18.19;75.79;101738.75;6017278;28;20045;-64
2023/10/01 10:42:29;;;;;;;6.53;2.50;;;;;;;18.10;76.77;101738.94;6023718;28;20479;-64
2023/10/01 10:45:27;;;;;;;7.72;2.58;;;;;;;18.12;77.57;101720.81;6024388;28;20022;-63
2023/10/01 10:48:49;;;;;;;6.63;2.13;;;;;;;18.43;76.58;101738.69;6029542;28;20026;-64
2023/10/01 10:51:45;;;;;;;8.13;2.75;;;;;;;18.57;75.47;101737.16;6027184;28;20026;-64
2023/10/01 10:54:45;;;;;;;7.85;2.90;;;;;;;18.65;75.22;101729.09;6030064;28;20477;-64
2023/10/01 10:57:48;;;;;;;6.95;3.00;;;;;;;18.80;72.94;101715.75;6028406;28;20478;-63
2023/10/01 11:00:43;;;;;;;6.80;2.78;;;;;;;18.91;73.44;101728.81;6030032;28;20030;-64
2023/10/01 11:03:40;;;;;;;7.77;2.50;;;;;;;18.98;73.86;101735.16;6028700;28;20053;-64
2023/10/01 11:06:42;;;;;;;6.80;2.50;;;;;;;18.80;73.48;101732.75;6026471;28;20286;-64
2023/10/01 11:09:37;;;;;;;7.43;2.65;;;;;;;18.63;74.39;101717.69;6024783;28;20030;-65
2023/10/01 11:12:34;;;;;;;8.02;2.60;;;;;;;18.70;74.59;101720.50;6029835;28;20042;-65
2023/10/01 11:15:34;;;;;;;10.48;2.92;;;;;;;18.75;73.89;101718.16;6029460;28;20101;-64
2023/10/01 11:18:34;;;;;;;8.40;2.55;;;;;;;18.76;74.90;101719.81;6029530;28;20425;-65
2023/10/01 11:21:31;;;;;;;9.57;2.90;;;;;;;18.73;75.14;101718.31;6028161;28;20035;-65
2023/10/01 11:24:33;;;;;;;8.65;2.78;;;;;;;18.64;75.82;101723.91;6028089;28;20085;-64
2023/10/01 11:27:43;;;;;;;8.00;2.58;;;;;;;18.74;76.65;101717.31;6028965;28;20126;-64
2023/10/01 11:30:45;;;;;;;7.05;2.78;;;;;;;18.88;76.25;101705.81;6029579;28;20030;-64
2023/10/01 11:33:47;;;;;;;8.65;2.70;;;;;;;18.99;75.05;101709.97;6028622;28;20042;-63
2023/10/01 11:36:43;;;;;;;9.30;2.85;;;;;;;19.06;74.92;101710.06;6022309;28;20109;-63
2023/10/01 11:39:39;;;;;;;9.10;2.75;;;;;;;19.21;74.37;101713.69;6026621;28;20490;-64
2023/10/01 11:42:38;;;;;;;8.48;2.90;;;;;;;19.38;74.38;101710.75;6028769;28;20124;-65
2023/10/01 11:45:34;;;;;;;6.97;2.85;;;;;;;19.28;74.50;101718.19;6029194;28;20046;-64
2023/10/01 11:48:34;;;;;;;9.45;3.03;;;;;;;19.47;74.24;101695.38;6027399;28;20109;-64
2023/10/01 11:51:43;;;;;;;8.02;2.75;;;;;;;19.28;73.58;101693.97;6023554;28;20034;-64
2023/10/01 11:54:44;;;;;;;8.82;3.08;;;;;;;19.11;74.97;101697.78;6027478;28;20049;-64
2023/10/01 11:57:51;;;;;;;8.18;2.45;;;;;;;19.14;75.55;101675.06;6024116;28;20110;-64
2023/10/01 12:00:52;;;;;;;12.85;3.20;;;;;;;19.34;75.59;101698.66;6029022;28;20113;-64
2023/10/01 12:03:58;;;;;;;7.53;2.83;;;;;;;19.31;74.68;101676.63;6028222;28;20049;-64
2023/10/01 12:06:56;;;;;;;8.35;2.97;;;;;;;19.63;74.78;101671.03;6028586;28;20030;-63
2023/10/01 12:09:54;;;;;;;7.28;2.97;;;;;;;19.80;73.54;101683.34;6027853;28;20038;-65
2023/10/01 12:12:49;;;;;;;11.02;3.15;;;;;;;19.98;72.66;101683.81;6020393;28;20478;-65
2023/10/01 12:15:51;;;;;;;11.20;3.43;;;;;;;20.07;71.74;101680.03;6028185;28;20039;-64
2023/10/01 12:18:46;;;;;;;8.50;3.15;;;;;;;19.83;72.54;101669.50;6027681;28;20629;-64
2023/10/01 12:21:42;;;;;;;8.35;3.22;;;;;;;19.88;72.73;101682.41;6022009;28;20035;-64
2023/10/01 12:24:40;;;;;;;8.70;3.13;;;;;;;19.72;73.15;101663.72;6018675;28;20044;-64
2023/10/01 12:27:38;;;;;;;10.43;3.38;;;;;;;19.75;73.47;101676.81;6027443;28;20031;-64
2023/10/01 12:30:33;;;;;;;16.55;3.47;;;;;;;19.87;73.54;101673.50;6026990;28;20456;-65
2023/10/01 12:33:38;;;;;;;11.98;3.15;;;;;;;19.94;72.74;101668.22;6028119;28;20060;-65
2023/10/01 12:36:44;;;;;;;10.10;3.33;;;;;;;20.03;73.60;101659.84;6027501;28;20034;-64
2023/10/01 12:39:39;;;;;;;11.82;3.67;;;;;;;20.02;72.48;101660.06;6027929;28;20084;-64
2023/10/01 12:42:35;;;;;;;10.83;3.40;;;;;;;20.07;72.64;101653.09;6027913;28;20638;-65
2023/10/01 12:45:31;;;;;;;11.27;3.38;;;;;;;20.08;71.68;101643.97;6019420;28;20474;-64
2023/10/01 12:48:28;;;;;;;11.93;4.13;;;;;;;20.24;70.80;101651.09;6027185;28;20114;-64
2023/10/01 12:51:32;;;;;;;11.85;3.30;;;;;;;20.39;71.51;101651.06;6034269;28;20038;-64
2023/10/01 12:54:28;;;;;;;10.52;3.58;;;;;;;20.59;72.08;101641.41;6027772;28;20034;-64
2023/10/01 12:57:23;;;;;;;9.57;3.47;;;;;;;20.73;71.10;101640.53;6026681;28;20038;-64
2023/10/01 13:00:43;;;;;;;11.90;3.10;;;;;;;20.92;68.63;101634.53;6027864;28;20324;-65
2023/10/01 13:03:42;;;;;;;9.55;3.22;;;;;;;21.08;68.71;101639.72;6027295;28;20070;-65
2023/10/01 13:06:39;;;;;;;10.73;3.63;;;;;;;20.82;69.88;101642.06;6026439;28;20242;-65
2023/10/01 13:09:53;;;;;;;13.65;4.10;;;;;;;20.81;69.98;101637.72;6027098;28;20093;-65
2023/10/01 13:12:57;;;;;;;8.07;3.08;;;;;;;20.86;70.68;101638.00;6023711;28;20034;-63
2023/10/01 13:15:54;;;;;;;10.35;3.42;;;;;;;20.65;69.69;101621.78;6023785;28;20409;-64
2023/10/01 13:18:54;;;;;;;8.50;3.13;;;;;;;20.60;70.64;101629.59;6026195;28;20033;-64
2023/10/01 13:21:49;;;;;;;12.93;3.90;;;;;;;20.63;70.22;101624.66;6027204;28;20125;-65
2023/10/01 13:24:53;;;;;;;11.70;3.70;;;;;;;20.51;71.30;101636.13;6026839;28;20088;-64
2023/10/01 13:28:02;;;;;;;9.13;3.50;;;;;;;20.69;71.59;101609.56;6026384;28;20030;-64
2023/10/01 13:33:56;;;;;;;10.07;3.57;;;;;;;20.82;71.32;101598.13;6026703;28;20042;-65
2023/10/01 13:39:52;;;;;;;13.02;3.67;;;;;;;20.87;70.73;101601.91;6026467;28;20092;-65
2023/10/01 14:08:47;;;;;;;10.65;3.30;;;;;;;21.67;66.70;101566.50;6025086;28;20519;-65
2023/10/01 14:11:45;;;;;;;10.43;3.63;;;;;;;21.48;66.93;101586.94;6025722;28;20130;-66
2023/10/01 14:14:43;;;;;;;9.77;3.72;;;;;;;21.37;68.03;101573.97;6025518;28;20665;-64
2023/10/01 14:17:38;;;;;;;15.20;3.60;;;;;;;21.28;69.36;101567.88;6025020;28;20056;-65
2023/10/01 14:20:55;;;;;;;8.57;3.65;;;;;;;21.25;69.83;101557.47;6030278;28;20074;-64
2023/10/01 14:23:57;;;;;;;9.43;3.65;;;;;;;21.34;69.30;101575.19;6025157;28;20042;-65
2023/10/01 14:26:52;;;;;;;11.60;3.25;;;;;;;21.32;69.89;101561.06;6025217;28;20032;-64
2023/10/01 14:29:49;;;;;;;11.15;3.35;;;;;;;21.22;69.68;101554.34;6020726;28;20034;-64
2023/10/01 14:32:45;;;;;;;10.98;3.90;;;;;;;21.21;70.20;101561.59;6025517;28;20038;-64
2023/10/01 14:35:47;;;;;;;7.93;3.22;;;;;;;21.03;71.07;101565.75;6024429;28;20037;-64
2023/10/01 14:38:42;;;;;;;10.77;3.50;;;;;;;21.01;72.59;101538.16;6025358;28;20038;-64
2023/10/01 14:41:41;;;;;;;8.37;2.97;;;;;;;21.14;73.17;101549.09;6025400;28;20200;-65
2023/10/01 14:44:42;;;;;;;10.65;3.65;;;;;;;21.20;72.67;101542.88;6025543;28;20034;-64
2023/10/01 14:47:42;;;;;;;8.10;3.40;;;;;;;21.25;73.05;101541.28;6018645;28;20038;-65
2023/10/01 14:50:41;;;;;;;9.02;3.88;;;;;;;21.26;73.12;101534.84;6032465;28;20038;-64